sensor_id;sensor_type;location;lat;lon;timestamp;P1;durP1;ratioP1;P2;durP2;ratioP2
18596;SDS011;9428;50.950;6.912;2023-11-21T00:01:08;8.63;;;5.60;;
18596;SDS011;9428;50.950;6.912;2023-11-21T00:03:56;10.40;;;5.93;;
18596;SDS011;9428;50.950;6.912;2023-11-21T00:06:43;9.48;;;5.82;;
18596;SDS011;9428;50.950;6.912;2023-11-21T00:09:33;8.98;;;5.68;;
18596;SDS011;9428;50.950;6.912;2023-11-21T00:12:22;13.23;;;5.10;;
18596;SDS011;9428;50.950;6.912;2023-11-21T00:15:10;9.30;;;5.53;;
18596;SDS011;9428;50.950;6.912;2023-11-21T00:17:57;12.52;;;5.90;;
18596;SDS011;9428;50.950;6.912;2023-11-21T00:20:44;11.95;;;6.40;;
18596;SDS011;9428;50.950;6.912;2023-11-21T00:23:32;12.07;;;7.15;;
18596;SDS011;9428;50.950;6.912;2023-11-21T00:26:20;11.32;;;6.45;;
18596;SDS011;9428;50.950;6.912;2023-11-21T00:29:08;9.60;;;6.68;;
18596;SDS011;9428;50.950;6.912;2023-11-21T00:31:56;15.52;;;7.28;;
18596;SDS011;9428;50.950;6.912;2023-11-21T00:34:43;10.32;;;6.78;;
18596;SDS011;9428;50.950;6.912;2023-11-21T00:37:30;14.30;;;6.70;;
18596;SDS011;9428;50.950;6.912;2023-11-21T00:40:18;13.30;;;6.68;;
18596;SDS011;9428;50.950;6.912;2023-11-21T00:43:07;13.13;;;7.03;;
18596;SDS011;9428;50.950;6.912;2023-11-21T00:45:55;11.02;;;7.05;;
18596;SDS011;9428;50.950;6.912;2023-11-21T00:48:42;17.60;;;7.65;;
18596;SDS011;9428;50.950;6.912;2023-11-21T00:51:29;13.55;;;8.00;;
18596;SDS011;9428;50.950;6.912;2023-11-21T00:54:17;15.63;;;7.63;;
18596;SDS011;9428;50.950;6.912;2023-11-21T00:57:06;13.90;;;7.65;;
18596;SDS011;9428;50.950;6.912;2023-11-21T00:59:55;15.27;;;8.10;;
18596;SDS011;9428;50.950;6.912;2023-11-21T01:02:43;16.42;;;7.80;;
18596;SDS011;9428;50.950;6.912;2023-11-21T01:05:30;14.00;;;8.48;;
18596;SDS011;9428;50.950;6.912;2023-11-21T01:08:18;13.35;;;7.78;;
18596;SDS011;9428;50.950;6.912;2023-11-21T01:11:05;11.50;;;7.95;;
18596;SDS011;9428;50.950;6.912;2023-11-21T01:13:53;14.85;;;8.52;;
18596;SDS011;9428;50.950;6.912;2023-11-21T01:16:45;13.93;;;7.88;;
18596;SDS011;9428;50.950;6.912;2023-11-21T01:19:32;15.10;;;8.80;;
18596;SDS011;9428;50.950;6.912;2023-11-21T01:22:19;17.27;;;8.95;;
18596;SDS011;9428;50.950;6.912;2023-11-21T01:25:11;11.35;;;7.60;;
18596;SDS011;9428;50.950;6.912;2023-11-21T01:27:59;11.02;;;8.20;;
18596;SDS011;9428;50.950;6.912;2023-11-21T01:30:50;17.50;;;8.25;;
18596;SDS011;9428;50.950;6.912;2023-11-21T01:33:39;15.18;;;8.15;;
18596;SDS011;9428;50.950;6.912;2023-11-21T01:36:31;10.40;;;7.57;;
18596;SDS011;9428;50.950;6.912;2023-11-21T01:39:19;17.35;;;8.57;;
18596;SDS011;9428;50.950;6.912;2023-11-21T01:42:09;14.88;;;8.93;;
18596;SDS011;9428;50.950;6.912;2023-11-21T01:44:58;14.25;;;8.35;;
18596;SDS011;9428;50.950;6.912;2023-11-21T01:47:45;17.73;;;8.77;;
18596;SDS011;9428;50.950;6.912;2023-11-21T01:50:35;13.30;;;8.00;;
18596;SDS011;9428;50.950;6.912;2023-11-21T01:53:23;16.10;;;8.73;;
18596;SDS011;9428;50.950;6.912;2023-11-21T01:56:12;15.00;;;8.40;;
18596;SDS011;9428;50.950;6.912;2023-11-21T01:59:05;12.43;;;7.57;;
18596;SDS011;9428;50.950;6.912;2023-11-21T02:01:53;12.38;;;8.10;;
18596;SDS011;9428;50.950;6.912;2023-11-21T02:04:41;13.30;;;7.88;;
18596;SDS011;9428;50.950;6.912;2023-11-21T02:07:30;18.30;;;8.25;;
18596;SDS011;9428;50.950;6.912;2023-11-21T02:10:17;17.55;;;8.32;;
18596;SDS011;9428;50.950;6.912;2023-11-21T02:13:08;12.75;;;7.50;;
18596;SDS011;9428;50.950;6.912;2023-11-21T02:15:56;13.50;;;8.52;;
18596;SDS011;9428;50.950;6.912;2023-11-21T02:18:43;11.25;;;7.53;;
18596;SDS011;9428;50.950;6.912;2023-11-21T02:21:32;12.90;;;7.78;;
18596;SDS011;9428;50.950;6.912;2023-11-21T02:24:23;18.40;;;9.55;;
18596;SDS011;9428;50.950;6.912;2023-11-21T02:27:13;18.52;;;9.63;;
18596;SDS011;9428;50.950;6.912;2023-11-21T02:30:09;13.27;;;9.10;;
18596;SDS011;9428;50.950;6.912;2023-11-21T02:32:59;16.95;;;8.68;;
18596;SDS011;9428;50.950;6.912;2023-11-21T02:35:46;15.95;;;8.75;;
18596;SDS011;9428;50.950;6.912;2023-11-21T02:38:33;16.85;;;9.55;;
18596;SDS011;9428;50.950;6.912;2023-11-21T02:41:22;16.77;;;9.25;;
18596;SDS011;9428;50.950;6.912;2023-11-21T02:44:10;22.88;;;10.63;;
18596;SDS011;9428;50.950;6.912;2023-11-21T02:46:57;15.82;;;9.27;;
18596;SDS011;9428;50.950;6.912;2023-11-21T02:49:45;19.05;;;8.88;;
18596;SDS011;9428;50.950;6.912;2023-11-21T02:52:35;11.90;;;8.77;;
18596;SDS011;9428;50.950;6.912;2023-11-21T02:55:22;23.20;;;9.73;;
18596;SDS011;9428;50.950;6.912;2023-11-21T02:58:12;18.77;;;9.88;;
18596;SDS011;9428;50.950;6.912;2023-11-21T03:01:00;12.63;;;8.85;;
18596;SDS011;9428;50.950;6.912;2023-11-21T03:03:47;19.38;;;8.95;;
18596;SDS011;9428;50.950;6.912;2023-11-21T03:06:36;16.77;;;9.38;;
18596;SDS011;9428;50.950;6.912;2023-11-21T03:09:23;14.70;;;9.00;;
18596;SDS011;9428;50.950;6.912;2023-11-21T03:12:13;13.63;;;9.07;;
18596;SDS011;9428;50.950;6.912;2023-11-21T03:15:03;17.17;;;9.23;;
18596;SDS011;9428;50.950;6.912;2023-11-21T03:17:53;15.32;;;9.20;;
18596;SDS011;9428;50.950;6.912;2023-11-21T03:20:41;15.48;;;10.35;;
18596;SDS011;9428;50.950;6.912;2023-11-21T03:23:32;18.08;;;10.60;;
18596;SDS011;9428;50.950;6.912;2023-11-21T03:26:19;25.08;;;10.93;;
18596;SDS011;9428;50.950;6.912;2023-11-21T03:29:06;20.70;;;11.35;;
18596;SDS011;9428;50.950;6.912;2023-11-21T03:31:55;20.55;;;11.38;;
18596;SDS011;9428;50.950;6.912;2023-11-21T03:34:56;17.80;;;11.10;;
18596;SDS011;9428;50.950;6.912;2023-11-21T03:37:44;16.45;;;10.05;;
18596;SDS011;9428;50.950;6.912;2023-11-21T03:40:31;21.25;;;11.43;;
18596;SDS011;9428;50.950;6.912;2023-11-21T03:43:20;19.95;;;11.80;;
18596;SDS011;9428;50.950;6.912;2023-11-21T03:46:07;18.23;;;11.60;;
18596;SDS011;9428;50.950;6.912;2023-11-21T03:48:56;25.35;;;12.35;;
18596;SDS011;9428;50.950;6.912;2023-11-21T03:51:47;18.70;;;11.57;;
18596;SDS011;9428;50.950;6.912;2023-11-21T03:54:34;24.95;;;10.73;;
18596;SDS011;9428;50.950;6.912;2023-11-21T03:57:22;18.45;;;11.30;;
18596;SDS011;9428;50.950;6.912;2023-11-21T04:00:10;21.50;;;10.48;;
18596;SDS011;9428;50.950;6.912;2023-11-21T04:02:58;17.25;;;10.55;;
18596;SDS011;9428;50.950;6.912;2023-11-21T04:05:47;18.77;;;10.55;;
18596;SDS011;9428;50.950;6.912;2023-11-21T04:08:34;20.58;;;10.55;;
18596;SDS011;9428;50.950;6.912;2023-11-21T04:11:21;18.98;;;10.88;;
18596;SDS011;9428;50.950;6.912;2023-11-21T04:14:09;22.52;;;10.98;;
18596;SDS011;9428;50.950;6.912;2023-11-21T04:16:56;20.45;;;11.18;;
18596;SDS011;9428;50.950;6.912;2023-11-21T04:19:43;17.40;;;10.98;;
18596;SDS011;9428;50.950;6.912;2023-11-21T04:22:32;20.42;;;11.30;;
18596;SDS011;9428;50.950;6.912;2023-11-21T04:25:20;21.77;;;12.02;;
18596;SDS011;9428;50.950;6.912;2023-11-21T04:28:08;26.38;;;12.23;;
18596;SDS011;9428;50.950;6.912;2023-11-21T04:30:55;20.95;;;11.15;;
18596;SDS011;9428;50.950;6.912;2023-11-21T04:33:44;21.65;;;11.18;;
18596;SDS011;9428;50.950;6.912;2023-11-21T04:36:32;21.15;;;12.00;;
18596;SDS011;9428;50.950;6.912;2023-11-21T04:39:21;19.38;;;11.23;;
18596;SDS011;9428;50.950;6.912;2023-11-21T04:42:09;22.88;;;11.48;;
18596;SDS011;9428;50.950;6.912;2023-11-21T04:44:57;17.08;;;11.07;;
18596;SDS011;9428;50.950;6.912;2023-11-21T04:47:44;18.08;;;10.88;;
18596;SDS011;9428;50.950;6.912;2023-11-21T04:50:32;16.27;;;10.55;;
18596;SDS011;9428;50.950;6.912;2023-11-21T04:53:19;17.77;;;10.77;;
18596;SDS011;9428;50.950;6.912;2023-11-21T04:56:08;24.42;;;11.93;;
18596;SDS011;9428;50.950;6.912;2023-11-21T04:58:55;24.38;;;11.85;;
18596;SDS011;9428;50.950;6.912;2023-11-21T05:01:42;19.40;;;11.80;;
18596;SDS011;9428;50.950;6.912;2023-11-21T05:04:32;21.50;;;12.52;;
18596;SDS011;9428;50.950;6.912;2023-11-21T05:07:19;20.83;;;12.13;;
18596;SDS011;9428;50.950;6.912;2023-11-21T05:10:08;22.17;;;11.85;;
18596;SDS011;9428;50.950;6.912;2023-11-21T05:12:58;18.98;;;11.43;;
18596;SDS011;9428;50.950;6.912;2023-11-21T05:15:46;20.80;;;12.32;;
18596;SDS011;9428;50.950;6.912;2023-11-21T05:18:33;22.38;;;12.15;;
18596;SDS011;9428;50.950;6.912;2023-11-21T05:21:20;18.30;;;11.88;;
18596;SDS011;9428;50.950;6.912;2023-11-21T05:24:09;25.98;;;11.73;;
18596;SDS011;9428;50.950;6.912;2023-11-21T05:26:56;18.25;;;12.13;;
18596;SDS011;9428;50.950;6.912;2023-11-21T05:29:45;19.65;;;11.38;;
18596;SDS011;9428;50.950;6.912;2023-11-21T05:32:32;20.90;;;11.23;;
18596;SDS011;9428;50.950;6.912;2023-11-21T05:35:20;22.67;;;12.55;;
18596;SDS011;9428;50.950;6.912;2023-11-21T05:38:07;23.13;;;11.82;;
18596;SDS011;9428;50.950;6.912;2023-11-21T05:40:54;22.75;;;11.50;;
18596;SDS011;9428;50.950;6.912;2023-11-21T05:43:44;21.20;;;11.68;;
18596;SDS011;9428;50.950;6.912;2023-11-21T05:46:32;20.42;;;11.25;;
18596;SDS011;9428;50.950;6.912;2023-11-21T05:49:19;21.45;;;11.05;;
18596;SDS011;9428;50.950;6.912;2023-11-21T05:52:07;24.42;;;11.55;;
18596;SDS011;9428;50.950;6.912;2023-11-21T05:54:55;17.83;;;10.75;;
18596;SDS011;9428;50.950;6.912;2023-11-21T05:57:43;20.15;;;11.20;;
18596;SDS011;9428;50.950;6.912;2023-11-21T06:00:31;20.23;;;10.52;;
18596;SDS011;9428;50.950;6.912;2023-11-21T06:03:20;19.38;;;10.88;;
18596;SDS011;9428;50.950;6.912;2023-11-21T06:06:08;18.58;;;11.40;;
18596;SDS011;9428;50.950;6.912;2023-11-21T06:08:55;17.92;;;10.60;;
18596;SDS011;9428;50.950;6.912;2023-11-21T06:11:43;19.13;;;10.88;;
18596;SDS011;9428;50.950;6.912;2023-11-21T06:14:30;20.70;;;10.00;;
18596;SDS011;9428;50.950;6.912;2023-11-21T06:17:20;19.83;;;11.43;;
18596;SDS011;9428;50.950;6.912;2023-11-21T06:20:11;21.13;;;11.23;;
18596;SDS011;9428;50.950;6.912;2023-11-21T06:23:00;18.48;;;10.05;;
18596;SDS011;9428;50.950;6.912;2023-11-21T06:25:49;20.58;;;11.52;;
18596;SDS011;9428;50.950;6.912;2023-11-21T06:28:36;20.77;;;11.40;;
18596;SDS011;9428;50.950;6.912;2023-11-21T06:31:23;24.45;;;11.57;;
18596;SDS011;9428;50.950;6.912;2023-11-21T06:34:10;18.55;;;10.88;;
18596;SDS011;9428;50.950;6.912;2023-11-21T06:36:59;21.48;;;11.43;;
18596;SDS011;9428;50.950;6.912;2023-11-21T06:39:46;22.13;;;11.73;;
18596;SDS011;9428;50.950;6.912;2023-11-21T06:42:34;19.55;;;12.50;;
18596;SDS011;9428;50.950;6.912;2023-11-21T06:45:23;21.15;;;12.77;;
18596;SDS011;9428;50.950;6.912;2023-11-21T06:48:10;19.70;;;11.60;;
18596;SDS011;9428;50.950;6.912;2023-11-21T06:50:58;20.23;;;12.20;;
18596;SDS011;9428;50.950;6.912;2023-11-21T06:53:46;25.15;;;12.63;;
18596;SDS011;9428;50.950;6.912;2023-11-21T06:56:34;22.33;;;12.55;;
18596;SDS011;9428;50.950;6.912;2023-11-21T06:59:21;22.33;;;13.02;;
18596;SDS011;9428;50.950;6.912;2023-11-21T07:02:09;24.88;;;14.02;;
18596;SDS011;9428;50.950;6.912;2023-11-21T07:04:56;26.33;;;13.07;;
18596;SDS011;9428;50.950;6.912;2023-11-21T07:07:44;26.50;;;14.40;;
18596;SDS011;9428;50.950;6.912;2023-11-21T07:10:32;28.42;;;14.15;;
18596;SDS011;9428;50.950;6.912;2023-11-21T07:13:20;27.10;;;14.77;;
18596;SDS011;9428;50.950;6.912;2023-11-21T07:16:08;27.42;;;14.98;;
18596;SDS011;9428;50.950;6.912;2023-11-21T07:18:55;26.58;;;13.93;;
18596;SDS011;9428;50.950;6.912;2023-11-21T07:21:43;31.10;;;14.57;;
18596;SDS011;9428;50.950;6.912;2023-11-21T07:24:30;29.35;;;15.52;;
18596;SDS011;9428;50.950;6.912;2023-11-21T07:27:19;28.30;;;15.38;;
18596;SDS011;9428;50.950;6.912;2023-11-21T07:30:07;31.55;;;17.08;;
18596;SDS011;9428;50.950;6.912;2023-11-21T07:32:56;29.77;;;17.00;;
18596;SDS011;9428;50.950;6.912;2023-11-21T07:35:43;29.65;;;16.08;;
18596;SDS011;9428;50.950;6.912;2023-11-21T07:38:30;28.75;;;16.45;;
18596;SDS011;9428;50.950;6.912;2023-11-21T07:41:20;28.27;;;16.00;;
18596;SDS011;9428;50.950;6.912;2023-11-21T07:44:12;33.40;;;17.38;;
18596;SDS011;9428;50.950;6.912;2023-11-21T07:46:59;32.33;;;17.85;;
18596;SDS011;9428;50.950;6.912;2023-11-21T07:49:50;38.15;;;17.35;;
18596;SDS011;9428;50.950;6.912;2023-11-21T07:52:37;34.50;;;18.52;;
18596;SDS011;9428;50.950;6.912;2023-11-21T07:55:27;34.33;;;19.02;;
18596;SDS011;9428;50.950;6.912;2023-11-21T07:58:17;34.05;;;17.55;;
18596;SDS011;9428;50.950;6.912;2023-11-21T08:01:06;33.83;;;17.33;;
18596;SDS011;9428;50.950;6.912;2023-11-21T08:03:56;31.25;;;17.42;;
18596;SDS011;9428;50.950;6.912;2023-11-21T08:06:47;27.77;;;16.55;;
18596;SDS011;9428;50.950;6.912;2023-11-21T08:09:34;32.75;;;18.00;;
18596;SDS011;9428;50.950;6.912;2023-11-21T08:12:22;34.97;;;16.83;;
18596;SDS011;9428;50.950;6.912;2023-11-21T08:15:09;33.25;;;17.73;;
18596;SDS011;9428;50.950;6.912;2023-11-21T08:17:59;31.55;;;18.13;;
18596;SDS011;9428;50.950;6.912;2023-11-21T08:20:46;40.60;;;17.20;;
18596;SDS011;9428;50.950;6.912;2023-11-21T08:23:37;31.05;;;18.00;;
18596;SDS011;9428;50.950;6.912;2023-11-21T08:26:24;29.90;;;17.05;;
18596;SDS011;9428;50.950;6.912;2023-11-21T08:29:11;35.65;;;18.58;;
18596;SDS011;9428;50.950;6.912;2023-11-21T08:31:59;35.20;;;18.40;;
18596;SDS011;9428;50.950;6.912;2023-11-21T08:34:48;35.53;;;19.10;;
18596;SDS011;9428;50.950;6.912;2023-11-21T08:37:36;32.97;;;17.70;;
18596;SDS011;9428;50.950;6.912;2023-11-21T08:40:27;29.55;;;18.77;;
18596;SDS011;9428;50.950;6.912;2023-11-21T08:43:17;34.97;;;18.33;;
18596;SDS011;9428;50.950;6.912;2023-11-21T08:46:05;37.72;;;18.50;;
18596;SDS011;9428;50.950;6.912;2023-11-21T08:48:53;32.42;;;19.58;;
18596;SDS011;9428;50.950;6.912;2023-11-21T08:51:43;35.08;;;19.17;;
18596;SDS011;9428;50.950;6.912;2023-11-21T08:54:31;34.85;;;20.00;;
18596;SDS011;9428;50.950;6.912;2023-11-21T08:57:19;33.45;;;18.35;;
18596;SDS011;9428;50.950;6.912;2023-11-21T09:00:07;29.92;;;17.58;;
18596;SDS011;9428;50.950;6.912;2023-11-21T09:02:56;33.60;;;17.88;;
18596;SDS011;9428;50.950;6.912;2023-11-21T09:05:44;41.17;;;19.25;;
18596;SDS011;9428;50.950;6.912;2023-11-21T09:08:35;32.22;;;18.80;;
18596;SDS011;9428;50.950;6.912;2023-11-21T09:11:23;35.63;;;19.48;;
18596;SDS011;9428;50.950;6.912;2023-11-21T09:14:11;33.03;;;18.75;;
18596;SDS011;9428;50.950;6.912;2023-11-21T09:17:01;33.83;;;18.95;;
18596;SDS011;9428;50.950;6.912;2023-11-21T09:19:48;41.35;;;21.10;;
18596;SDS011;9428;50.950;6.912;2023-11-21T09:22:36;34.63;;;17.92;;
18596;SDS011;9428;50.950;6.912;2023-11-21T09:25:25;31.02;;;17.80;;
18596;SDS011;9428;50.950;6.912;2023-11-21T09:28:14;33.05;;;18.30;;
18596;SDS011;9428;50.950;6.912;2023-11-21T09:31:03;33.97;;;18.73;;
18596;SDS011;9428;50.950;6.912;2023-11-21T09:33:53;34.33;;;18.58;;
18596;SDS011;9428;50.950;6.912;2023-11-21T09:36:41;42.40;;;20.67;;
18596;SDS011;9428;50.950;6.912;2023-11-21T09:39:31;39.03;;;19.83;;
18596;SDS011;9428;50.950;6.912;2023-11-21T09:42:23;37.95;;;18.92;;
18596;SDS011;9428;50.950;6.912;2023-11-21T09:45:15;42.10;;;20.15;;
18596;SDS011;9428;50.950;6.912;2023-11-21T09:48:09;39.40;;;19.92;;
18596;SDS011;9428;50.950;6.912;2023-11-21T09:50:57;37.08;;;18.52;;
18596;SDS011;9428;50.950;6.912;2023-11-21T09:53:47;34.35;;;18.63;;
18596;SDS011;9428;50.950;6.912;2023-11-21T09:56:37;32.08;;;18.02;;
18596;SDS011;9428;50.950;6.912;2023-11-21T09:59:27;30.55;;;15.27;;
18596;SDS011;9428;50.950;6.912;2023-11-21T10:02:18;32.35;;;15.25;;
18596;SDS011;9428;50.950;6.912;2023-11-21T10:05:07;28.90;;;14.90;;
18596;SDS011;9428;50.950;6.912;2023-11-21T10:08:01;29.95;;;16.25;;
18596;SDS011;9428;50.950;6.912;2023-11-21T10:10:54;34.40;;;16.95;;
18596;SDS011;9428;50.950;6.912;2023-11-21T10:13:42;32.65;;;16.33;;
18596;SDS011;9428;50.950;6.912;2023-11-21T10:16:32;37.30;;;18.75;;
18596;SDS011;9428;50.950;6.912;2023-11-21T10:19:21;36.63;;;17.63;;
18596;SDS011;9428;50.950;6.912;2023-11-21T10:22:09;34.92;;;17.40;;
18596;SDS011;9428;50.950;6.912;2023-11-21T10:24:56;37.70;;;17.02;;
18596;SDS011;9428;50.950;6.912;2023-11-21T10:27:47;43.00;;;17.17;;
18596;SDS011;9428;50.950;6.912;2023-11-21T10:30:37;41.45;;;18.83;;
18596;SDS011;9428;50.950;6.912;2023-11-21T10:33:29;38.60;;;17.90;;
18596;SDS011;9428;50.950;6.912;2023-11-21T10:36:24;36.88;;;17.75;;
18596;SDS011;9428;50.950;6.912;2023-11-21T10:39:14;30.83;;;16.02;;
18596;SDS011;9428;50.950;6.912;2023-11-21T10:42:04;35.90;;;17.35;;
18596;SDS011;9428;50.950;6.912;2023-11-21T10:44:54;33.80;;;17.05;;
18596;SDS011;9428;50.950;6.912;2023-11-21T10:47:43;33.67;;;16.63;;
18596;SDS011;9428;50.950;6.912;2023-11-21T10:50:36;32.88;;;15.85;;
18596;SDS011;9428;50.950;6.912;2023-11-21T10:53:24;38.47;;;16.30;;
18596;SDS011;9428;50.950;6.912;2023-11-21T10:56:16;42.47;;;18.02;;
18596;SDS011;9428;50.950;6.912;2023-11-21T10:59:07;42.50;;;17.65;;
18596;SDS011;9428;50.950;6.912;2023-11-21T11:01:57;37.05;;;16.83;;
18596;SDS011;9428;50.950;6.912;2023-11-21T11:04:46;37.63;;;16.85;;
18596;SDS011;9428;50.950;6.912;2023-11-21T11:07:36;37.60;;;16.10;;
18596;SDS011;9428;50.950;6.912;2023-11-21T11:10:25;36.60;;;15.63;;
18596;SDS011;9428;50.950;6.912;2023-11-21T11:13:12;35.17;;;15.55;;
18596;SDS011;9428;50.950;6.912;2023-11-21T11:16:01;31.00;;;14.73;;
18596;SDS011;9428;50.950;6.912;2023-11-21T11:18:52;37.13;;;16.40;;
18596;SDS011;9428;50.950;6.912;2023-11-21T11:21:43;36.58;;;16.83;;
18596;SDS011;9428;50.950;6.912;2023-11-21T11:24:47;40.17;;;16.42;;
18596;SDS011;9428;50.950;6.912;2023-11-21T11:28:00;37.13;;;17.63;;
18596;SDS011;9428;50.950;6.912;2023-11-21T11:30:57;33.75;;;16.10;;
18596;SDS011;9428;50.950;6.912;2023-11-21T11:33:52;34.17;;;15.23;;
18596;SDS011;9428;50.950;6.912;2023-11-21T11:36:47;29.73;;;15.32;;
18596;SDS011;9428;50.950;6.912;2023-11-21T11:39:39;35.20;;;14.38;;
18596;SDS011;9428;50.950;6.912;2023-11-21T11:42:30;31.77;;;15.30;;
18596;SDS011;9428;50.950;6.912;2023-11-21T11:45:19;29.23;;;13.60;;
18596;SDS011;9428;50.950;6.912;2023-11-21T11:48:07;28.48;;;13.13;;
18596;SDS011;9428;50.950;6.912;2023-11-21T11:51:04;31.15;;;13.93;;
18596;SDS011;9428;50.950;6.912;2023-11-21T11:53:54;25.35;;;12.88;;
18596;SDS011;9428;50.950;6.912;2023-11-21T11:56:42;27.83;;;13.13;;
18596;SDS011;9428;50.950;6.912;2023-11-21T11:59:31;25.70;;;12.05;;
18596;SDS011;9428;50.950;6.912;2023-11-21T12:03:10;22.85;;;11.95;;
18596;SDS011;9428;50.950;6.912;2023-11-21T12:05:59;29.17;;;13.43;;
18596;SDS011;9428;50.950;6.912;2023-11-21T12:08:47;25.92;;;13.60;;
18596;SDS011;9428;50.950;6.912;2023-11-21T12:11:36;34.38;;;13.93;;
18596;SDS011;9428;50.950;6.912;2023-11-21T12:14:23;30.17;;;13.48;;
18596;SDS011;9428;50.950;6.912;2023-11-21T12:17:12;26.98;;;13.40;;
18596;SDS011;9428;50.950;6.912;2023-11-21T12:20:01;30.58;;;14.25;;
18596;SDS011;9428;50.950;6.912;2023-11-21T12:22:51;28.35;;;14.63;;
18596;SDS011;9428;50.950;6.912;2023-11-21T12:25:38;33.00;;;13.48;;
18596;SDS011;9428;50.950;6.912;2023-11-21T12:28:27;28.48;;;14.35;;
18596;SDS011;9428;50.950;6.912;2023-11-21T12:31:14;25.58;;;13.00;;
18596;SDS011;9428;50.950;6.912;2023-11-21T12:34:05;28.48;;;13.23;;
18596;SDS011;9428;50.950;6.912;2023-11-21T12:36:54;27.33;;;13.85;;
18596;SDS011;9428;50.950;6.912;2023-11-21T12:39:42;30.17;;;12.90;;
18596;SDS011;9428;50.950;6.912;2023-11-21T12:42:29;27.92;;;13.07;;
18596;SDS011;9428;50.950;6.912;2023-11-21T12:45:20;32.90;;;12.82;;
18596;SDS011;9428;50.950;6.912;2023-11-21T12:48:11;36.95;;;17.63;;
18596;SDS011;9428;50.950;6.912;2023-11-21T12:50:59;40.28;;;18.80;;
18596;SDS011;9428;50.950;6.912;2023-11-21T12:53:48;42.72;;;19.23;;
18596;SDS011;9428;50.950;6.912;2023-11-21T12:56:37;39.05;;;18.33;;
18596;SDS011;9428;50.950;6.912;2023-11-21T12:59:25;35.38;;;17.83;;
18596;SDS011;9428;50.950;6.912;2023-11-21T13:02:13;45.30;;;18.98;;
18596;SDS011;9428;50.950;6.912;2023-11-21T13:05:01;47.25;;;21.33;;
18596;SDS011;9428;50.950;6.912;2023-11-21T13:07:53;43.97;;;22.25;;
18596;SDS011;9428;50.950;6.912;2023-11-21T13:10:44;41.90;;;19.48;;
18596;SDS011;9428;50.950;6.912;2023-11-21T13:13:32;43.90;;;22.02;;
18596;SDS011;9428;50.950;6.912;2023-11-21T13:16:20;42.00;;;20.77;;
18596;SDS011;9428;50.950;6.912;2023-11-21T13:19:07;44.30;;;20.77;;
18596;SDS011;9428;50.950;6.912;2023-11-21T13:21:54;41.65;;;20.73;;
18596;SDS011;9428;50.950;6.912;2023-11-21T13:24:43;50.92;;;20.35;;
18596;SDS011;9428;50.950;6.912;2023-11-21T13:27:31;45.92;;;20.17;;
18596;SDS011;9428;50.950;6.912;2023-11-21T13:30:19;47.40;;;21.05;;
18596;SDS011;9428;50.950;6.912;2023-11-21T13:33:12;45.20;;;19.70;;
18596;SDS011;9428;50.950;6.912;2023-11-21T13:36:03;44.47;;;19.98;;
18596;SDS011;9428;50.950;6.912;2023-11-21T13:38:53;42.15;;;19.90;;
18596;SDS011;9428;50.950;6.912;2023-11-21T13:41:42;40.50;;;20.05;;
18596;SDS011;9428;50.950;6.912;2023-11-21T13:44:33;45.75;;;19.92;;
18596;SDS011;9428;50.950;6.912;2023-11-21T13:47:23;50.90;;;21.45;;
18596;SDS011;9428;50.950;6.912;2023-11-21T13:50:15;44.75;;;20.85;;
18596;SDS011;9428;50.950;6.912;2023-11-21T13:53:08;43.30;;;18.73;;
18596;SDS011;9428;50.950;6.912;2023-11-21T13:56:03;45.00;;;20.15;;
18596;SDS011;9428;50.950;6.912;2023-11-21T13:58:53;48.08;;;19.95;;
18596;SDS011;9428;50.950;6.912;2023-11-21T14:01:41;34.15;;;17.58;;
18596;SDS011;9428;50.950;6.912;2023-11-21T14:04:40;39.65;;;17.95;;
18596;SDS011;9428;50.950;6.912;2023-11-21T14:07:40;43.80;;;18.08;;
18596;SDS011;9428;50.950;6.912;2023-11-21T14:10:33;40.17;;;17.27;;
18596;SDS011;9428;50.950;6.912;2023-11-21T14:13:28;35.92;;;16.77;;
18596;SDS011;9428;50.950;6.912;2023-11-21T14:16:16;36.22;;;17.48;;
18596;SDS011;9428;50.950;6.912;2023-11-21T14:19:04;40.72;;;17.08;;
18596;SDS011;9428;50.950;6.912;2023-11-21T14:22:01;42.60;;;16.17;;
18596;SDS011;9428;50.950;6.912;2023-11-21T14:24:48;37.05;;;14.73;;
18596;SDS011;9428;50.950;6.912;2023-11-21T14:27:37;32.45;;;15.43;;
18596;SDS011;9428;50.950;6.912;2023-11-21T14:30:24;37.10;;;15.95;;
18596;SDS011;9428;50.950;6.912;2023-11-21T14:33:14;30.38;;;15.60;;
18596;SDS011;9428;50.950;6.912;2023-11-21T14:36:01;39.45;;;16.73;;
18596;SDS011;9428;50.950;6.912;2023-11-21T14:38:49;39.10;;;15.48;;
18596;SDS011;9428;50.950;6.912;2023-11-21T14:41:39;30.05;;;14.20;;
18596;SDS011;9428;50.950;6.912;2023-11-21T14:44:28;33.65;;;14.85;;
18596;SDS011;9428;50.950;6.912;2023-11-21T14:47:21;32.83;;;13.73;;
18596;SDS011;9428;50.950;6.912;2023-11-21T14:50:13;28.77;;;13.45;;
18596;SDS011;9428;50.950;6.912;2023-11-21T14:53:15;29.00;;;12.85;;
18596;SDS011;9428;50.950;6.912;2023-11-21T14:56:11;30.35;;;12.75;;
18596;SDS011;9428;50.950;6.912;2023-11-21T14:59:06;29.95;;;13.00;;
18596;SDS011;9428;50.950;6.912;2023-11-21T15:02:02;33.58;;;12.32;;
18596;SDS011;9428;50.950;6.912;2023-11-21T15:05:00;32.45;;;12.70;;
18596;SDS011;9428;50.950;6.912;2023-11-21T15:07:49;31.40;;;13.98;;
18596;SDS011;9428;50.950;6.912;2023-11-21T15:10:35;27.58;;;13.55;;
18596;SDS011;9428;50.950;6.912;2023-11-21T15:13:31;34.33;;;12.75;;
18596;SDS011;9428;50.950;6.912;2023-11-21T15:16:19;28.88;;;14.77;;
18596;SDS011;9428;50.950;6.912;2023-11-21T15:19:06;40.47;;;15.38;;
18596;SDS011;9428;50.950;6.912;2023-11-21T15:21:54;32.10;;;13.77;;
18596;SDS011;9428;50.950;6.912;2023-11-21T15:24:43;32.85;;;16.40;;
18596;SDS011;9428;50.950;6.912;2023-11-21T15:27:32;35.47;;;15.57;;
18596;SDS011;9428;50.950;6.912;2023-11-21T15:30:20;34.15;;;16.60;;
18596;SDS011;9428;50.950;6.912;2023-11-21T15:33:10;29.92;;;15.43;;
18596;SDS011;9428;50.950;6.912;2023-11-21T15:35:57;45.40;;;16.77;;
18596;SDS011;9428;50.950;6.912;2023-11-21T15:38:45;43.22;;;17.83;;
18596;SDS011;9428;50.950;6.912;2023-11-21T15:41:34;46.10;;;18.42;;
18596;SDS011;9428;50.950;6.912;2023-11-21T15:44:23;47.53;;;20.67;;
18596;SDS011;9428;50.950;6.912;2023-11-21T15:47:11;45.70;;;19.80;;
18596;SDS011;9428;50.950;6.912;2023-11-21T15:49:59;47.58;;;21.77;;
18596;SDS011;9428;50.950;6.912;2023-11-21T15:52:46;52.28;;;22.27;;
18596;SDS011;9428;50.950;6.912;2023-11-21T15:55:37;44.72;;;20.15;;
18596;SDS011;9428;50.950;6.912;2023-11-21T15:58:30;40.70;;;18.40;;
18596;SDS011;9428;50.950;6.912;2023-11-21T16:01:18;36.30;;;17.65;;
18596;SDS011;9428;50.950;6.912;2023-11-21T16:04:07;33.40;;;14.95;;
18596;SDS011;9428;50.950;6.912;2023-11-21T16:06:56;31.05;;;14.82;;
18596;SDS011;9428;50.950;6.912;2023-11-21T16:09:44;28.75;;;15.02;;
18596;SDS011;9428;50.950;6.912;2023-11-21T16:12:32;31.77;;;13.65;;
18596;SDS011;9428;50.950;6.912;2023-11-21T16:15:21;29.05;;;13.68;;
18596;SDS011;9428;50.950;6.912;2023-11-21T16:18:08;20.83;;;11.63;;
18596;SDS011;9428;50.950;6.912;2023-11-21T16:20:58;21.50;;;10.95;;
18596;SDS011;9428;50.950;6.912;2023-11-21T16:23:45;21.17;;;11.13;;
18596;SDS011;9428;50.950;6.912;2023-11-21T16:26:33;19.15;;;11.82;;
18596;SDS011;9428;50.950;6.912;2023-11-21T16:29:23;19.17;;;10.60;;
18596;SDS011;9428;50.950;6.912;2023-11-21T16:32:12;20.88;;;11.40;;
18596;SDS011;9428;50.950;6.912;2023-11-21T16:34:59;20.13;;;10.60;;
18596;SDS011;9428;50.950;6.912;2023-11-21T16:37:48;17.50;;;9.73;;
18596;SDS011;9428;50.950;6.912;2023-11-21T16:40:35;16.10;;;10.25;;
18596;SDS011;9428;50.950;6.912;2023-11-21T16:43:22;16.88;;;9.77;;
18596;SDS011;9428;50.950;6.912;2023-11-21T16:46:10;16.50;;;9.75;;
18596;SDS011;9428;50.950;6.912;2023-11-21T16:49:00;18.65;;;9.90;;